Time;durP1;ratioP1;P1;durP2;ratioP2;P2;SDS_P1;SDS_P2;PMS_P1;PMS_P2;Temp;Humidity;BMP_temperature;BMP_pressure;BME280_temperature;BME280_humidity;BME280_pressure;Samples;Min_cycle;Max_cycle;Signal;HPM_P1;HPM_P2
2021/12/04 00:01:11;;;;;;;3.40;2.22;;;5.10;95.80;;;;;;4834051;29;20388;-79
2021/12/04 00:03:40;;;;;;;4.25;2.47;;;5.10;95.90;;;;;;4820827;29;20058;-79
2021/12/04 00:06:41;;;;;;;4.25;2.75;;;5.10;95.80;;;;;;4845189;29;20049;-79
2021/12/04 00:09:04;;;;;;;4.95;1.83;;;5.10;95.90;;;;;;4832248;29;20054;-79
2021/12/04 00:11:34;;;;;;;3.22;2.10;;;5.10;95.90;;;;;;4830654;29;20046;-78
2021/12/04 00:14:01;;;;;;;4.97;2.55;;;5.10;95.90;;;;;;4825872;29;20050;-78
2021/12/04 00:16:28;;;;;;;3.67;2.30;;;5.10;95.90;;;;;;4844334;29;20113;-78
2021/12/04 00:18:55;;;;;;;4.20;2.50;;;5.10;95.90;;;;;;4860967;29;20057;-78
2021/12/04 00:21:22;;;;;;;4.90;2.92;;;5.10;95.90;;;;;;4831830;29;20090;-78
2021/12/04 00:23:49;;;;;;;4.57;2.90;;;5.10;95.90;;;;;;4829208;29;20122;-78
2021/12/04 00:26:17;;;;;;;5.63;3.33;;;5.10;95.90;;;;;;4829216;29;20101;-78
2021/12/04 00:28:46;;;;;;;4.82;2.70;;;5.10;95.90;;;;;;4826256;29;20054;-78
2021/12/04 00:31:13;;;;;;;4.35;2.50;;;5.10;95.90;;;;;;4828455;29;20111;-77
2021/12/04 00:33:43;;;;;;;4.72;3.15;;;5.10;95.90;;;;;;4827991;29;20562;-77
2021/12/04 00:36:27;;;;;;;5.00;3.00;;;5.10;95.90;;;;;;4828807;29;20046;-78
2021/12/04 00:49:58;;;;;;;4.95;2.95;;;5.10;95.80;;;;;;4807993;29;1114480;-78
2021/12/04 00:52:25;;;;;;;4.50;2.53;;;5.10;95.90;;;;;;4831585;29;20511;-79
2021/12/04 00:54:52;;;;;;;3.25;2.10;;;5.10;95.90;;;;;;4843898;29;20042;-78
2021/12/04 00:57:19;;;;;;;4.85;2.20;;;5.20;96.00;;;;;;4804620;29;21164;-79
2021/12/04 00:59:46;;;;;;;4.13;2.30;;;5.20;95.90;;;;;;4828866;29;20513;-79
2021/12/04 01:02:14;;;;;;;3.33;1.70;;;5.20;95.90;;;;;;4814447;29;20127;-79
2021/12/04 01:04:41;;;;;;;3.22;2.05;;;5.20;95.90;;;;;;4830096;29;20060;-78
2021/12/04 01:07:08;;;;;;;3.85;1.92;;;5.20;95.90;;;;;;4829125;29;20053;-78
2021/12/04 01:09:36;;;;;;;4.30;1.92;;;5.20;95.90;;;;;;4827964;29;20072;-79
2021/12/04 01:12:06;;;;;;;3.25;1.95;;;5.30;96.00;;;;;;4841349;29;20129;-78
2021/12/04 01:14:33;;;;;;;5.03;2.33;;;5.30;95.90;;;;;;4846804;29;20744;-78
2021/12/04 01:17:00;;;;;;;4.20;2.10;;;5.20;95.90;;;;;;4857726;29;20051;-78
2021/12/04 01:19:29;;;;;;;3.45;1.92;;;5.20;95.90;;;;;;4829905;29;20054;-75
2021/12/04 01:21:57;;;;;;;2.47;1.30;;;5.20;95.90;;;;;;4843178;29;20057;-75
2021/12/04 01:24:24;;;;;;;3.53;2.08;;;5.30;96.00;;;;;;4848003;29;20106;-75
2021/12/04 01:26:51;;;;;;;3.53;1.75;;;5.30;96.00;;;;;;4866468;29;20046;-75
2021/12/04 01:29:22;;;;;;;4.10;2.08;;;5.30;95.90;;;;;;4844780;29;20064;-75
2021/12/04 01:31:49;;;;;;;3.88;2.10;;;5.30;96.20;;;;;;4844806;29;20444;-75
2021/12/04 01:34:16;;;;;;;4.63;2.47;;;5.30;95.90;;;;;;4846153;29;20064;-76
2021/12/04 01:36:43;;;;;;;4.25;2.70;;;5.30;95.90;;;;;;4866372;29;20195;-75
2021/12/04 01:39:11;;;;;;;4.45;2.42;;;5.20;95.90;;;;;;4844661;29;20105;-75
2021/12/04 01:41:38;;;;;;;5.57;2.78;;;5.20;95.90;;;;;;4826931;29;20107;-75
2021/12/04 01:44:06;;;;;;;4.57;2.50;;;5.20;95.90;;;;;;4844975;29;20049;-75
2021/12/04 01:46:34;;;;;;;4.55;2.55;;;5.20;95.90;;;;;;4843434;29;20094;-76
2021/12/04 01:49:01;;;;;;;4.07;2.30;;;5.20;95.90;;;;;;4827059;29;20044;-75
2021/12/04 01:51:29;;;;;;;4.72;2.67;;;5.20;95.90;;;;;;4828563;29;20741;-75
2021/12/04 01:53:59;;;;;;;4.43;2.25;;;5.20;95.90;;;;;;4825720;29;20042;-75
2021/12/04 01:56:35;;;;;;;4.13;2.15;;;5.30;95.90;;;;;;4860830;29;20141;-75
2021/12/04 01:59:03;;;;;;;4.78;3.08;;;5.20;95.90;;;;;;4836377;29;20115;-75
2021/12/04 02:01:33;;;;;;;5.72;3.20;;;5.20;95.90;;;;;;4862088;29;20046;-75
2021/12/04 02:04:05;;;;;;;5.47;3.30;;;5.20;95.90;;;;;;4842241;29;20045;-75
2021/12/04 02:06:32;;;;;;;5.55;2.90;;;5.20;95.90;;;;;;4827463;29;20648;-75
2021/12/04 02:08:59;;;;;;;5.55;3.50;;;5.20;95.90;;;;;;4824253;29;20049;-75
2021/12/04 02:11:26;;;;;;;6.45;3.63;;;5.20;95.90;;;;;;4841291;29;20049;-75
2021/12/04 02:13:53;;;;;;;5.60;2.80;;;5.20;95.90;;;;;;4810780;29;20473;-74
2021/12/04 02:16:22;;;;;;;6.25;3.28;;;5.20;95.90;;;;;;4826960;29;20046;-75
2021/12/04 02:18:49;;;;;;;5.15;3.17;;;5.20;96.00;;;;;;4828020;29;20080;-74
2021/12/04 02:21:16;;;;;;;4.20;2.10;;;5.20;95.90;;;;;;4844596;29;20042;-75
2021/12/04 02:23:43;;;;;;;4.68;2.53;;;5.20;96.00;;;;;;4843699;29;20049;-76
2021/12/04 02:26:12;;;;;;;3.92;2.28;;;5.20;96.00;;;;;;4842687;29;20048;-75
2021/12/04 02:28:46;;;;;;;5.15;2.60;;;5.20;96.00;;;;;;4839551;29;20080;-74
2021/12/04 02:31:17;;;;;;;4.75;2.75;;;5.20;96.00;;;;;;4845311;29;20122;-75
2021/12/04 02:33:44;;;;;;;4.78;2.78;;;5.20;96.00;;;;;;4858332;29;20046;-74
2021/12/04 02:36:12;;;;;;;4.43;2.35;;;5.20;96.00;;;;;;4844420;29;20648;-74
2021/12/04 02:38:39;;;;;;;4.00;2.28;;;5.20;96.00;;;;;;4827443;29;20495;-74
2021/12/04 02:41:08;;;;;;;3.63;1.98;;;5.20;96.00;;;;;;4849276;29;20114;-74
2021/12/04 02:43:35;;;;;;;3.83;1.92;;;5.20;96.00;;;;;;4849755;29;20053;-74
2021/12/04 02:46:03;;;;;;;3.60;2.00;;;5.20;96.00;;;;;;4827427;29;20481;-74
2021/12/04 02:48:31;;;;;;;4.20;2.10;;;5.30;96.00;;;;;;4843641;29;20053;-75
2021/12/04 02:50:58;;;;;;;3.95;2.20;;;5.30;96.00;;;;;;4812496;29;20062;-75
2021/12/04 02:53:25;;;;;;;3.65;2.03;;;5.30;96.00;;;;;;4859907;29;20049;-75
2021/12/04 02:55:53;;;;;;;3.50;1.77;;;5.30;96.00;;;;;;4827918;29;20071;-75
2021/12/04 02:58:21;;;;;;;2.97;1.70;;;5.30;96.00;;;;;;4821709;29;20061;-74
2021/12/04 03:00:50;;;;;;;3.40;1.80;;;5.30;96.00;;;;;;4859890;29;20052;-75
2021/12/04 03:03:19;;;;;;;3.33;2.05;;;5.30;96.00;;;;;;4838590;29;20912;-75
2021/12/04 03:05:51;;;;;;;4.30;2.30;;;5.30;96.00;;;;;;4842757;29;20716;-75
2021/12/04 03:08:22;;;;;;;2.97;1.55;;;5.30;96.00;;;;;;4846870;29;20228;-75
2021/12/04 03:10:51;;;;;;;3.35;1.77;;;5.30;96.00;;;;;;4855443;29;20141;-75
2021/12/04 03:13:21;;;;;;;3.20;1.60;;;5.30;96.00;;;;;;4827592;29;20046;-75
2021/12/04 03:15:56;;;;;;;3.08;1.83;;;5.30;96.00;;;;;;4847592;29;20046;-74
2021/12/04 03:18:24;;;;;;;2.92;1.70;;;5.30;96.00;;;;;;4839311;29;20137;-75
2021/12/04 03:20:55;;;;;;;3.25;1.52;;;5.30;96.00;;;;;;4828624;29;20060;-75
2021/12/04 03:23:39;;;;;;;1.73;0.85;;;5.40;96.10;;;;;;4831064;29;20073;-75
2021/12/04 03:26:09;;;;;;;1.77;1.10;;;5.40;96.00;;;;;;4826397;29;20065;-75
2021/12/04 03:28:39;;;;;;;2.30;1.02;;;5.30;96.00;;;;;;4828888;29;20066;-75
2021/12/04 03:31:17;;;;;;;1.95;0.82;;;5.40;96.00;;;;;;4826944;29;20038;-74
2021/12/04 03:42:02;;;;;;;2.85;1.25;;;5.40;96.00;;;;;;4831739;29;20412;-75
2021/12/04 03:44:31;;;;;;;2.50;0.90;;;5.30;96.00;;;;;;4848123;29;20057;-75
2021/12/04 03:46:59;;;;;;;1.67;0.73;;;5.40;96.00;;;;;;4844608;29;20079;-75
2021/12/04 03:49:26;;;;;;;1.52;0.65;;;5.40;96.30;;;;;;4827518;29;20075;-75
2021/12/04 03:51:56;;;;;;;1.73;0.65;;;5.40;96.00;;;;;;4843896;29;20720;-75
2021/12/04 03:54:23;;;;;;;1.92;0.85;;;5.40;96.10;;;;;;4829402;29;20579;-75
2021/12/04 03:57:00;;;;;;;1.65;0.68;;;5.40;96.00;;;;;;4847044;29;20073;-75
2021/12/04 03:59:30;;;;;;;2.03;0.90;;;5.40;96.00;;;;;;4830327;29;20355;-75
2021/12/04 04:01:57;;;;;;;2.55;1.10;;;5.50;96.10;;;;;;4857521;29;20054;-75
2021/12/04 04:04:25;;;;;;;2.25;1.10;;;5.50;96.00;;;;;;4850330;29;20045;-75
2021/12/04 04:06:52;;;;;;;1.85;0.80;;;5.50;96.00;;;;;;4858776;29;20053;-75
2021/12/04 04:09:19;;;;;;;2.55;0.93;;;5.50;96.00;;;;;;4830629;29;20124;-74
2021/12/04 04:11:47;;;;;;;1.75;0.70;;;5.50;96.00;;;;;;4844166;29;20099;-75
2021/12/04 04:14:15;;;;;;;2.33;0.80;;;5.50;96.00;;;;;;4841394;29;20053;-75
2021/12/04 04:16:42;;;;;;;2.08;0.80;;;5.50;96.00;;;;;;4842161;29;20042;-75
2021/12/04 04:19:10;;;;;;;1.90;0.80;;;5.50;96.00;;;;;;4844176;29;20057;-75
2021/12/04 04:21:40;;;;;;;2.08;0.90;;;5.50;96.00;;;;;;4832114;29;20186;-75
2021/12/04 04:24:09;;;;;;;2.33;1.00;;;5.50;96.00;;;;;;4842924;29;20058;-75
2021/12/04 04:26:36;;;;;;;2.00;1.00;;;5.50;96.00;;;;;;4842263;29;20045;-75
2021/12/04 04:29:12;;;;;;;2.72;1.15;;;5.50;96.20;;;;;;4848840;29;20034;-75
2021/12/04 04:31:47;;;;;;;1.85;0.82;;;5.50;96.00;;;;;;4843454;29;20049;-75
2021/12/04 04:34:33;;;;;;;2.45;0.90;;;5.50;96.00;;;;;;4844329;29;20045;-75
2021/12/04 04:37:18;;;;;;;1.92;0.90;;;5.50;96.00;;;;;;4853109;29;20086;-76
2021/12/04 04:59:37;;;;;;;2.80;1.10;;;5.50;96.30;;;;;;4850272;29;20134;-74
2021/12/04 05:13:09;;;;;;;5.72;3.10;;;5.40;96.00;;;;;;4845232;29;20110;-74
2021/12/04 05:20:36;;;;;;;5.70;2.75;;;5.40;96.00;;;;;;4844521;29;20049;-73
2021/12/04 05:23:07;;;;;;;5.53;2.20;;;5.40;96.00;;;;;;4847203;29;20090;-74
2021/12/04 05:25:36;;;;;;;5.50;2.22;;;5.40;96.00;;;;;;4846022;29;20050;-75
2021/12/04 05:28:07;;;;;;;4.25;2.00;;;5.40;96.30;;;;;;4834792;29;20145;-75
2021/12/04 05:30:35;;;;;;;5.50;2.00;;;5.50;96.10;;;;;;4859773;29;20487;-74
2021/12/04 05:33:06;;;;;;;4.28;1.83;;;5.50;96.10;;;;;;4851650;29;20310;-75
2021/12/04 05:35:33;;;;;;;4.63;2.50;;;5.50;96.10;;;;;;4830998;29;20152;-73
2021/12/04 05:38:00;;;;;;;5.72;2.40;;;5.50;96.00;;;;;;4844548;29;20132;-73
2021/12/04 05:40:27;;;;;;;4.47;2.13;;;5.50;96.30;;;;;;4827485;29;20082;-73
2021/12/04 05:43:00;;;;;;;3.42;1.50;;;5.50;96.10;;;;;;4828316;29;20053;-74
2021/12/04 05:45:30;;;;;;;4.50;1.40;;;5.50;96.10;;;;;;4829318;29;20113;-74
2021/12/04 05:55:58;;;;;;;5.20;1.98;;;5.50;96.10;;;;;;4848530;29;20129;-74
2021/12/04 05:58:33;;;;;;;6.40;2.25;;;5.50;96.10;;;;;;4841425;29;20049;-75
2021/12/04 06:01:03;;;;;;;7.05;3.20;;;5.50;96.00;;;;;;4856859;29;20146;-75
2021/12/04 06:03:30;;;;;;;7.80;3.00;;;5.50;96.00;;;;;;4848510;29;20136;-74
2021/12/04 06:05:58;;;;;;;6.38;3.20;;;5.50;96.00;;;;;;4837191;29;20152;-74
2021/12/04 06:08:28;;;;;;;5.78;2.70;;;5.50;96.00;;;;;;4840626;29;20042;-74
2021/12/04 06:10:57;;;;;;;5.95;2.83;;;5.50;96.10;;;;;;4841095;29;20495;-76
2021/12/04 06:13:25;;;;;;;7.47;2.80;;;5.50;96.10;;;;;;4845044;29;20699;-74
2021/12/04 06:15:52;;;;;;;6.93;2.45;;;5.50;96.10;;;;;;4828795;29;20046;-74
2021/12/04 06:18:21;;;;;;;4.93;2.22;;;5.50;96.10;;;;;;4842813;29;20056;-75
2021/12/04 06:23:37;;;;;;;5.70;1.90;;;5.60;96.10;;;;;;4850775;29;20466;-75
2021/12/04 06:26:07;;;;;;;4.55;1.50;;;5.60;96.10;;;;;;4859780;29;20057;-75
2021/12/04 06:28:35;;;;;;;3.65;1.48;;;5.60;96.10;;;;;;4827339;29;20080;-75
2021/12/04 06:31:03;;;;;;;4.18;1.77;;;5.60;96.10;;;;;;4841016;29;20056;-74
2021/12/04 06:33:33;;;;;;;4.40;2.17;;;5.60;96.10;;;;;;4839842;29;20046;-75
2021/12/04 06:36:00;;;;;;;4.72;1.50;;;5.60;96.10;;;;;;4842437;29;20830;-74
2021/12/04 06:38:28;;;;;;;3.22;1.27;;;5.60;96.10;;;;;;4829452;29;20109;-73
2021/12/04 06:40:57;;;;;;;4.70;2.03;;;5.60;96.10;;;;;;4828457;29;20142;-75
2021/12/04 06:43:25;;;;;;;5.80;2.08;;;5.60;96.10;;;;;;4857323;29;20053;-75
2021/12/04 06:46:00;;;;;;;3.85;1.80;;;5.60;96.10;;;;;;4840338;29;20049;-75
2021/12/04 06:48:39;;;;;;;5.82;2.47;;;5.70;96.10;;;;;;4829441;29;20042;-75
2021/12/04 06:51:15;;;;;;;6.82;2.22;;;5.70;96.10;;;;;;4842601;29;20448;-74
2021/12/04 06:53:48;;;;;;;3.80;1.60;;;5.70;96.00;;;;;;4831727;29;20062;-75
2021/12/04 06:56:20;;;;;;;4.47;2.03;;;5.60;96.00;;;;;;4827932;29;20065;-75
2021/12/04 06:58:47;;;;;;;4.78;1.88;;;5.60;96.10;;;;;;4830400;29;20631;-74
2021/12/04 07:01:23;;;;;;;4.13;1.67;;;5.70;96.10;;;;;;4825745;29;20042;-74
2021/12/04 07:03:51;;;;;;;4.18;1.77;;;5.70;96.10;;;;;;4858992;29;20074;-74
2021/12/04 07:06:21;;;;;;;2.70;1.15;;;5.70;96.10;;;;;;4821334;29;20042;-75
2021/12/04 07:08:48;;;;;;;3.28;1.50;;;5.70;96.10;;;;;;4847638;29;20064;-75
2021/12/04 07:11:19;;;;;;;3.40;1.15;;;5.70;96.10;;;;;;4834242;29;20057;-73
2021/12/04 07:13:45;;;;;;;3.42;1.08;;;5.70;96.10;;;;;;4843435;29;20042;-75
2021/12/04 07:16:16;;;;;;;3.83;1.15;;;5.70;96.10;;;;;;4832033;29;20690;-75
2021/12/04 07:18:43;;;;;;;3.72;1.08;;;5.70;96.10;;;;;;4830457;29;20089;-79
2021/12/04 07:21:13;;;;;;;2.55;1.00;;;5.70;96.10;;;;;;4831322;29;20062;-80
2021/12/04 07:23:40;;;;;;;3.72;1.15;;;5.70;96.10;;;;;;4835068;29;20730;-79
2021/12/04 07:26:08;;;;;;;2.83;1.20;;;5.80;96.10;;;;;;4849114;29;20077;-80
2021/12/04 07:28:36;;;;;;;2.97;1.02;;;5.80;96.10;;;;;;4844891;29;20106;-74
2021/12/04 07:31:05;;;;;;;2.50;1.13;;;5.80;96.10;;;;;;4863942;29;20051;-74
2021/12/04 07:33:33;;;;;;;2.60;1.23;;;5.80;96.10;;;;;;4869250;29;20054;-78
2021/12/04 07:36:03;;;;;;;2.67;1.02;;;5.80;96.10;;;;;;4847499;29;20069;-78
2021/12/04 07:38:30;;;;;;;5.90;1.20;;;5.80;96.10;;;;;;4846613;29;20078;-78
2021/12/04 07:41:00;;;;;;;2.35;1.08;;;5.80;96.10;;;;;;4815647;29;20041;-74
2021/12/04 07:43:27;;;;;;;4.60;1.65;;;5.80;96.10;;;;;;4830386;29;20073;-75
2021/12/04 07:45:56;;;;;;;3.50;1.38;;;5.80;96.10;;;;;;4847825;29;20048;-75
2021/12/04 07:48:23;;;;;;;3.72;1.65;;;5.80;96.00;;;;;;4843440;29;20038;-74
2021/12/04 07:50:50;;;;;;;4.68;2.08;;;5.80;96.00;;;;;;4846775;29;20053;-74
2021/12/04 07:53:17;;;;;;;4.32;1.50;;;5.80;96.00;;;;;;4843093;29;20082;-74
2021/12/04 07:55:45;;;;;;;5.25;2.00;;;5.80;96.00;;;;;;4832394;29;20049;-75
2021/12/04 07:58:13;;;;;;;4.55;2.45;;;5.80;96.00;;;;;;4844372;29;20495;-75
2021/12/04 08:00:41;;;;;;;4.45;2.00;;;5.80;96.00;;;;;;4858797;29;20095;-75
2021/12/04 08:03:08;;;;;;;5.75;2.20;;;5.80;96.00;;;;;;4846842;29;20529;-75
2021/12/04 08:05:40;;;;;;;8.27;1.83;;;5.80;96.00;;;;;;4839324;29;20065;-75
2021/12/04 08:08:07;;;;;;;3.90;1.58;;;5.80;96.00;;;;;;4806724;29;20149;-74
2021/12/04 08:10:35;;;;;;;3.35;1.73;;;5.80;96.30;;;;;;4844299;29;20053;-75
2021/12/04 08:13:03;;;;;;;4.43;1.30;;;5.90;96.10;;;;;;4842524;29;20057;-75
2021/12/04 08:15:36;;;;;;;4.15;1.80;;;5.90;96.10;;;;;;4845981;29;20029;-74
2021/12/04 08:18:09;;;;;;;3.47;1.30;;;5.90;96.10;;;;;;4844711;29;20057;-75
2021/12/04 08:20:37;;;;;;;3.20;1.27;;;5.90;96.10;;;;;;4832303;29;20132;-74
2021/12/04 08:23:05;;;;;;;5.68;1.95;;;5.90;96.10;;;;;;4829732;29;20106;-74
2021/12/04 08:25:36;;;;;;;3.60;1.38;;;5.90;96.00;;;;;;4844144;29;20663;-74
2021/12/04 08:28:06;;;;;;;4.65;1.80;;;5.90;96.00;;;;;;4845184;29;20049;-75
2021/12/04 08:30:37;;;;;;;4.88;1.92;;;5.90;96.00;;;;;;4823093;29;20109;-75
2021/12/04 08:33:09;;;;;;;4.60;1.70;;;5.90;96.00;;;;;;4845836;29;20053;-75
2021/12/04 08:35:39;;;;;;;5.30;1.85;;;5.90;96.20;;;;;;4829393;29;20450;-75
2021/12/04 08:38:09;;;;;;;5.45;2.65;;;6.00;96.00;;;;;;4816350;29;20065;-75
2021/12/04 08:40:37;;;;;;;4.30;2.08;;;5.90;95.90;;;;;;4833314;29;20155;-76
2021/12/04 08:43:05;;;;;;;3.80;1.60;;;5.90;96.00;;;;;;4842864;29;20732;-75
2021/12/04 08:45:32;;;;;;;4.15;2.05;;;5.90;96.00;;;;;;4842107;29;20106;-75
2021/12/04 08:47:59;;;;;;;5.65;1.92;;;5.90;96.00;;;;;;4825520;29;20141;-75
2021/12/04 08:50:29;;;;;;;4.05;1.85;;;6.00;96.00;;;;;;4818666;29;20692;-75
2021/12/04 08:52:58;;;;;;;3.70;1.45;;;6.00;96.00;;;;;;4840372;29;20049;-75
2021/12/04 08:55:27;;;;;;;3.90;1.40;;;6.00;96.00;;;;;;4830227;29;20061;-75
2021/12/04 08:57:55;;;;;;;3.40;1.40;;;6.00;96.00;;;;;;4830244;29;20759;-75
2021/12/04 09:00:49;;;;;;;4.03;1.90;;;6.00;96.00;;;;;;4830492;29;20380;-75
2021/12/04 09:03:30;;;;;;;4.88;1.42;;;6.10;96.00;;;;;;4844959;29;20487;-75
2021/12/04 09:05:58;;;;;;;3.22;1.20;;;6.10;96.00;;;;;;4837142;29;20046;-75
2021/12/04 09:08:28;;;;;;;4.43;1.30;;;6.10;96.00;;;;;;4850330;29;20046;-75
2021/12/04 09:11:02;;;;;;;5.85;2.10;;;6.10;96.00;;;;;;4846515;29;20058;-75
2021/12/04 09:13:29;;;;;;;;;;;6.20;96.00;;;;;;4843256;29;20065;-75
2021/12/04 09:15:57;;;;;;;3.80;1.40;;;6.10;95.90;;;;;;4858785;29;19971;-74
2021/12/04 09:18:25;;;;;;;3.92;1.60;;;6.10;96.00;;;;;;4844748;29;20045;-74
2021/12/04 09:20:54;;;;;;;4.75;2.38;;;6.10;95.90;;;;;;4859529;29;20049;-74
2021/12/04 09:23:24;;;;;;;4.47;1.40;;;6.10;95.90;;;;;;4827594;29;20120;-75
2021/12/04 09:25:55;;;;;;;4.18;1.85;;;6.20;96.00;;;;;;4828010;29;20205;-74
2021/12/04 09:28:29;;;;;;;2.88;1.25;;;6.20;95.90;;;;;;4821112;29;20053;-74
2021/12/04 10:11:07;;;;;;;5.28;2.67;;;6.30;95.80;;;;;;4846538;29;20141;-74
2021/12/04 10:34:33;;;;;;;6.38;2.97;;;6.30;95.80;;;;;;4863518;29;20050;-75
2021/12/04 10:37:05;;;;;;;8.70;2.65;;;6.40;95.80;;;;;;4839466;29;20156;-75
2021/12/04 10:39:33;;;;;;;4.75;2.42;;;6.40;95.80;;;;;;4858830;29;20172;-75
2021/12/04 10:42:03;;;;;;;5.57;2.40;;;6.30;95.70;;;;;;4842195;29;20053;-74
2021/12/04 10:44:31;;;;;;;5.43;2.47;;;6.40;95.80;;;;;;4842669;29;20053;-74
2021/12/04 10:47:27;;;;;;;6.80;2.30;;;6.40;95.80;;;;;;4856902;29;20038;-75
2021/12/04 10:55:23;;;;;;;5.25;2.15;;;6.50;95.80;;;;;;4847979;29;20041;-75
2021/12/04 11:01:14;;;;;;;6.28;2.70;;;6.40;95.70;;;;;;4844195;29;20137;-74
2021/12/04 11:03:47;;;;;;;7.35;2.97;;;6.40;95.70;;;;;;4865123;29;20528;-75
2021/12/04 11:06:57;;;;;;;5.50;2.45;;;6.40;95.70;;;;;;4846087;29;20057;-75
2021/12/04 11:26:47;;;;;;;4.68;1.65;;;6.50;95.80;;;;;;4849382;29;20531;-74
2021/12/04 11:35:36;;;;;;;5.20;2.00;;;6.40;95.70;;;;;;4851339;29;20068;-74
2021/12/04 11:38:08;;;;;;;5.45;1.90;;;6.40;95.70;;;;;;4846287;29;20097;-74
2021/12/04 11:41:23;;;;;;;5.93;1.73;;;6.40;95.70;;;;;;4832170;29;20058;-74
2021/12/04 11:43:36;;;;;;;3.13;1.45;;;6.50;95.80;;;;;;4844970;29;20060;-74
2021/12/04 11:49:17;;;;;;;3.83;1.70;;;6.60;95.70;;;;;;4839534;29;20054;-74
2021/12/04 11:51:57;;;;;;;5.03;2.33;;;6.60;95.70;;;;;;4849968;29;20126;-75
2021/12/04 11:54:31;;;;;;;4.75;1.52;;;6.60;95.60;;;;;;4830037;29;20045;-74
2021/12/04 11:57:07;;;;;;;3.78;1.90;;;6.60;95.70;;;;;;4847405;29;20048;-74
2021/12/04 11:59:36;;;;;;;5.13;2.33;;;6.60;95.60;;;;;;4844872;29;20783;-74
2021/12/04 12:02:08;;;;;;;4.93;2.17;;;6.60;95.60;;;;;;4845201;29;20042;-74
2021/12/04 12:04:45;;;;;;;6.83;2.73;;;6.50;95.60;;;;;;4848358;29;20140;-74
2021/12/04 12:07:19;;;;;;;5.05;2.00;;;6.60;95.60;;;;;;4847396;29;20106;-74
2021/12/04 12:09:49;;;;;;;2.97;1.58;;;6.50;95.60;;;;;;4830251;29;20140;-75
2021/12/04 12:12:17;;;;;;;3.78;1.55;;;6.50;95.60;;;;;;4807288;29;20066;-79
2021/12/04 12:14:54;;;;;;;4.15;1.70;;;6.50;95.70;;;;;;4823830;29;20724;-77
2021/12/04 12:17:37;;;;;;;3.22;1.40;;;6.50;95.60;;;;;;4848290;29;20049;-78
2021/12/04 12:20:09;;;;;;;4.18;1.70;;;6.50;95.60;;;;;;4864103;29;20058;-78
2021/12/04 12:22:49;;;;;;;3.38;1.70;;;6.50;95.60;;;;;;4829509;29;20070;-77
2021/12/04 12:34:10;;;;;;;2.60;1.23;;;6.50;95.70;;;;;;4840860;29;20650;-73
2021/12/04 12:36:37;;;;;;;4.28;1.52;;;6.40;95.70;;;;;;4828404;29;20087;-74
2021/12/04 12:39:11;;;;;;;3.95;2.50;;;6.40;95.70;;;;;;4839972;29;20054;-74
2021/12/04 12:41:40;;;;;;;3.95;1.98;;;6.50;95.70;;;;;;4841241;29;20057;-74
2021/12/04 12:44:17;;;;;;;3.78;1.85;;;6.40;95.60;;;;;;4851272;29;20042;-76
2021/12/04 12:46:54;;;;;;;3.78;1.63;;;6.40;95.70;;;;;;4845307;29;20061;-74
2021/12/04 12:49:23;;;;;;;2.72;1.20;;;6.40;95.70;;;;;;4860507;29;20422;-75
2021/12/04 12:52:02;;;;;;;3.47;1.52;;;6.40;95.70;;;;;;4843986;29;20160;-75
2021/12/04 12:54:34;;;;;;;2.78;1.20;;;6.40;95.70;;;;;;4846689;29;20124;-74
2021/12/04 12:57:12;;;;;;;4.43;1.90;;;6.40;95.70;;;;;;4850848;29;20045;-76
2021/12/04 12:59:59;;;;;;;3.35;1.52;;;6.40;95.70;;;;;;4865770;29;20471;-75
2021/12/04 13:14:20;;;;;;;2.28;1.25;;;6.30;95.80;;;;;;4846868;29;20042;-78
2021/12/04 13:16:56;;;;;;;3.95;1.52;;;6.30;95.80;;;;;;4846358;29;20073;-77
2021/12/04 13:19:27;;;;;;;2.35;1.02;;;6.40;95.80;;;;;;4832066;29;20495;-79
2021/12/04 13:22:02;;;;;;;2.88;1.63;;;6.30;95.80;;;;;;4848077;29;20045;-78
2021/12/04 13:24:33;;;;;;;2.40;1.13;;;6.40;95.80;;;;;;4866343;29;20042;-78
2021/12/04 13:29:44;;;;;;;3.00;1.20;;;6.40;95.80;;;;;;4845811;29;20065;-77
2021/12/04 13:32:14;;;;;;;2.65;1.25;;;6.40;95.80;;;;;;4852884;29;20054;-78
2021/12/04 13:34:43;;;;;;;2.55;1.10;;;6.40;95.80;;;;;;4842949;29;20069;-78
2021/12/04 13:37:11;;;;;;;2.53;1.00;;;6.40;95.80;;;;;;4842943;29;20382;-78
2021/12/04 13:39:42;;;;;;;2.80;1.25;;;6.40;95.80;;;;;;4840248;29;21099;-78
2021/12/04 13:42:09;;;;;;;2.65;1.30;;;6.50;95.80;;;;;;4843186;29;20053;-79
2021/12/04 13:44:37;;;;;;;3.10;1.50;;;6.50;95.80;;;;;;4844484;29;20061;-78
2021/12/04 13:47:11;;;;;;;3.75;1.80;;;6.40;95.70;;;;;;4831007;29;20836;-77
2021/12/04 13:50:00;;;;;;;2.97;1.60;;;6.40;95.80;;;;;;4845192;29;20061;-78
2021/12/04 13:52:31;;;;;;;4.13;2.40;;;6.40;95.80;;;;;;4828702;29;20050;-78
2021/12/04 13:55:08;;;;;;;3.58;1.80;;;6.40;95.80;;;;;;4849371;29;20042;-78
2021/12/04 13:57:41;;;;;;;3.20;2.00;;;6.40;95.80;;;;;;4841835;29;20061;-78
2021/12/04 14:00:12;;;;;;;3.90;1.77;;;6.40;95.80;;;;;;4864575;29;20208;-76
2021/12/04 14:02:39;;;;;;;3.10;1.50;;;6.30;95.80;;;;;;4843866;29;20068;-77
2021/12/04 14:05:13;;;;;;;3.42;1.80;;;6.30;95.80;;;;;;4831615;29;20050;-77
2021/12/04 14:07:49;;;;;;;3.17;1.52;;;6.30;95.80;;;;;;4845838;29;20152;-78
2021/12/04 14:10:22;;;;;;;3.20;1.70;;;6.40;95.80;;;;;;4826110;29;20133;-78
2021/12/04 14:12:50;;;;;;;3.30;1.70;;;6.30;95.80;;;;;;4842256;29;20045;-78
2021/12/04 14:15:19;;;;;;;4.85;1.92;;;6.40;95.80;;;;;;4829125;29;20042;-78
2021/12/04 14:17:49;;;;;;;3.63;2.17;;;6.40;95.80;;;;;;4845310;29;20065;-78
2021/12/04 14:20:23;;;;;;;3.85;1.92;;;6.30;95.80;;;;;;4827303;29;20062;-78
2021/12/04 14:22:53;;;;;;;3.85;1.77;;;6.30;95.80;;;;;;4830734;29;20061;-79
2021/12/04 14:25:22;;;;;;;4.38;2.25;;;6.40;95.80;;;;;;4835477;29;20066;-78
2021/12/04 14:27:50;;;;;;;3.10;1.75;;;6.30;95.80;;;;;;4817707;29;20740;-79
2021/12/04 14:30:24;;;;;;;4.03;1.90;;;6.30;95.80;;;;;;4819804;29;20053;-80
2021/12/04 14:32:56;;;;;;;3.28;1.75;;;6.30;95.80;;;;;;4847405;29;20196;-79
2021/12/04 14:35:33;;;;;;;4.82;2.53;;;6.30;95.80;;;;;;4844884;29;20053;-77
2021/12/04 14:38:02;;;;;;;4.97;2.35;;;6.30;95.80;;;;;;4842938;29;20110;-80
2021/12/04 14:40:36;;;;;;;3.70;1.85;;;6.30;95.80;;;;;;4849548;29;20048;-79
2021/12/04 14:43:05;;;;;;;4.20;2.65;;;6.30;95.80;;;;;;4843673;29;20062;-79
2021/12/04 14:45:34;;;;;;;5.68;3.33;;;6.30;95.80;;;;;;4841662;29;20451;-79
2021/12/04 14:48:07;;;;;;;7.72;4.38;;;6.30;95.80;;;;;;4827779;29;20049;-79
2021/12/04 14:50:41;;;;;;;6.10;2.97;;;6.30;95.80;;;;;;4840604;29;20046;-80
2021/12/04 14:53:11;;;;;;;4.90;2.45;;;6.30;95.80;;;;;;4866001;29;20052;-80
2021/12/04 14:55:41;;;;;;;4.75;2.97;;;6.30;95.80;;;;;;4844457;29;20060;-80
2021/12/04 14:58:13;;;;;;;4.93;2.67;;;6.30;95.90;;;;;;4845876;29;20045;-79
2021/12/04 15:00:46;;;;;;;4.73;2.50;;;6.30;95.90;;;;;;4843720;29;20115;-80
2021/12/04 15:03:20;;;;;;;5.15;2.80;;;6.30;95.90;;;;;;4860887;29;20524;-80
2021/12/04 15:05:53;;;;;;;4.55;2.42;;;6.30;95.90;;;;;;4838528;29;20407;-80
2021/12/04 15:08:27;;;;;;;6.50;3.22;;;6.30;95.90;;;;;;4843929;29;20046;-80
2021/12/04 15:11:14;;;;;;;7.63;4.40;;;6.40;95.90;;;;;;4842503;29;20071;-78
2021/12/04 15:13:56;;;;;;;8.50;5.10;;;6.30;95.80;;;;;;4861439;29;20073;-79
2021/12/04 15:16:34;;;;;;;9.33;5.37;;;6.30;95.90;;;;;;4847138;29;20038;-78
2021/12/04 15:19:21;;;;;;;9.77;5.28;;;6.30;95.90;;;;;;4857082;29;20046;-78
2021/12/04 15:21:56;;;;;;;6.72;4.22;;;6.30;95.90;;;;;;4835999;29;20085;-78
2021/12/04 15:24:27;;;;;;;7.50;4.13;;;6.30;95.90;;;;;;4842033;29;20414;-79
2021/12/04 15:26:58;;;;;;;6.40;3.63;;;6.20;95.90;;;;;;4849074;29;20057;-78
2021/12/04 15:29:31;;;;;;;9.25;5.47;;;6.30;95.90;;;;;;4846667;29;20415;-78
2021/12/04 15:32:01;;;;;;;7.07;4.50;;;6.30;95.90;;;;;;4850593;29;20054;-79
2021/12/04 15:35:00;;;;;;;10.50;5.60;;;6.30;95.90;;;;;;4853275;29;20503;-78
2021/12/04 15:37:32;;;;;;;8.85;5.20;;;6.30;95.90;;;;;;4842718;29;20057;-80
2021/12/04 15:40:00;;;;;;;9.65;5.15;;;6.20;95.90;;;;;;4869326;29;20056;-78
2021/12/04 15:42:41;;;;;;;8.82;5.05;;;6.20;95.90;;;;;;4845005;29;20474;-78
2021/12/04 15:45:25;;;;;;;9.35;5.28;;;6.20;96.00;;;;;;4853343;29;20065;-79
2021/12/04 15:48:29;;;;;;;7.88;4.57;;;6.30;96.00;;;;;;4821284;29;20088;-80
2021/12/04 15:53:24;;;;;;;9.65;5.38;;;6.30;96.00;;;;;;4844967;29;20728;-80
2021/12/04 15:55:56;;;;;;;8.93;5.32;;;6.20;96.00;;;;;;4847058;29;20045;-79
2021/12/04 15:58:26;;;;;;;7.53;4.47;;;6.30;96.00;;;;;;4831561;29;20110;-78
2021/12/04 16:00:56;;;;;;;10.73;6.10;;;6.30;96.00;;;;;;4837940;29;20396;-79
2021/12/04 16:03:26;;;;;;;10.05;5.68;;;6.30;96.00;;;;;;4847188;29;20046;-79
2021/12/04 16:05:57;;;;;;;9.10;5.88;;;6.30;96.00;;;;;;4846516;29;20053;-80
2021/12/04 16:08:29;;;;;;;10.85;6.25;;;6.30;96.00;;;;;;4824813;29;20565;-78
2021/12/04 16:11:12;;;;;;;12.35;7.05;;;6.30;96.10;;;;;;4836457;29;20061;-78
2021/12/04 16:13:44;;;;;;;12.20;6.75;;;6.30;96.10;;;;;;4847727;29;20110;-78
2021/12/04 16:16:20;;;;;;;12.52;6.85;;;6.30;96.10;;;;;;4849009;29;20068;-77
2021/12/04 16:18:51;;;;;;;12.13;7.63;;;6.20;96.10;;;;;;4845580;29;20049;-77
2021/12/04 16:21:19;;;;;;;13.80;7.25;;;6.20;96.10;;;;;;4832614;29;20073;-75
2021/12/04 16:23:52;;;;;;;16.77;8.52;;;6.20;96.10;;;;;;4846644;29;20057;-77
2021/12/04 16:26:23;;;;;;;14.57;7.75;;;6.20;96.10;;;;;;4831615;29;20148;-78